createdAt,value
2018-03-06T00:04:06.988Z,84
2018-03-06T00:09:35.092Z,84
2018-03-06T00:15:02.276Z,84
2018-03-06T00:20:29.260Z,84
2018-03-06T00:25:56.407Z,84
2018-03-06T00:31:23.398Z,84
2018-03-06T00:36:50.476Z,84
2018-03-06T00:42:17.560Z,84
2018-03-06T00:47:44.657Z,84
2018-03-06T00:53:12.726Z,84
2018-03-06T00:58:41.007Z,84
2018-03-06T01:04:08.181Z,85
2018-03-06T01:09:35.010Z,85
2018-03-06T01:15:03.103Z,85
2018-03-06T01:20:30.173Z,85
2018-03-06T01:25:57.282Z,85
2018-03-06T01:31:25.347Z,85
2018-03-06T01:36:53.407Z,85
2018-03-06T01:42:20.514Z,85
2018-03-06T01:47:48.579Z,84
2018-03-06T01:53:15.706Z,84
2018-03-06T01:58:42.782Z,84
2018-03-06T02:04:10.447Z,84
2018-03-06T02:09:38.257Z,84
2018-03-06T02:15:05.346Z,84
2018-03-06T02:20:32.126Z,84
2018-03-06T02:26:00.108Z,84
2018-03-06T02:31:28.242Z,84
2018-03-06T02:36:56.272Z,84
2018-03-06T02:42:24.410Z,84
2018-03-06T02:47:51.584Z,84
2018-03-06T02:53:19.554Z,84
2018-03-06T02:58:47.715Z,84
2018-03-06T03:04:14.897Z,84
2018-03-06T03:09:42.792Z,84
2018-03-06T03:15:10.869Z,85
2018-03-06T03:20:38.949Z,85
2018-03-06T03:26:07.074Z,85
2018-03-06T03:31:35.167Z,85
2018-03-06T03:37:03.414Z,85
2018-03-06T03:42:31.353Z,85
2018-03-06T03:47:58.418Z,85
2018-03-06T03:53:25.539Z,85
2018-03-06T03:58:52.613Z,85
2018-03-06T04:04:20.719Z,85
2018-03-06T04:09:48.830Z,85
2018-03-06T04:15:15.918Z,85
2018-03-06T04:20:44.062Z,85
2018-03-06T04:26:12.130Z,85
2018-03-06T04:31:39.201Z,85
2018-03-06T04:37:06.319Z,85
2018-03-06T04:42:33.413Z,85
2018-03-06T04:48:00.487Z,85
2018-03-06T04:53:27.586Z,85
2018-03-06T04:58:55.687Z,85
2018-03-06T05:04:23.742Z,85
2018-03-06T05:09:51.934Z,85
2018-03-06T05:15:19.903Z,85
2018-03-06T05:20:48.117Z,85
2018-03-06T05:26:15.107Z,85
2018-03-06T05:31:43.198Z,86
2018-03-06T05:37:11.320Z,86
2018-03-06T05:42:39.373Z,86
2018-03-06T05:48:06.502Z,86
2018-03-06T05:53:33.844Z,86
2018-03-06T05:59:00.720Z,86
2018-03-06T06:04:27.875Z,86
2018-03-06T06:09:54.943Z,86
2018-03-06T06:15:23.161Z,86
2018-03-06T06:20:50.443Z,86
2018-03-06T06:26:17.380Z,86
2018-03-06T06:31:44.490Z,86
2018-03-06T06:37:11.602Z,86
2018-03-06T06:42:38.781Z,86
2018-03-06T06:48:05.877Z,86
2018-03-06T06:53:33.020Z,86
2018-03-06T06:59:00.263Z,86
2018-03-06T07:04:27.465Z,86
2018-03-06T07:09:54.511Z,86
2018-03-06T07:15:21.705Z,86
2018-03-06T07:20:49.052Z,86
2018-03-06T07:26:17.099Z,86
2018-03-06T07:31:44.320Z,86
2018-03-06T07:37:11.613Z,86
2018-03-06T07:42:38.930Z,86
2018-03-06T07:48:06.187Z,87
2018-03-06T07:53:34.497Z,87
2018-03-06T07:59:01.771Z,87
2018-03-06T08:04:29.038Z,87
2018-03-06T08:09:56.392Z,87
2018-03-06T08:15:23.677Z,87
2018-03-06T08:20:51.998Z,87
2018-03-06T08:26:19.476Z,87
2018-03-06T08:31:46.737Z,87
2018-03-06T08:37:15.123Z,87
2018-03-06T08:42:43.472Z,87
2018-03-06T08:48:11.840Z,87
2018-03-06T08:53:40.257Z,87
2018-03-06T08:59:07.606Z,87
2018-03-06T09:04:35.992Z,87
2018-03-06T09:10:03.438Z,87
2018-03-06T09:15:31.822Z,87
2018-03-06T09:21:00.327Z,86
2018-03-06T09:26:27.698Z,87
2018-03-06T09:31:55.157Z,86
2018-03-06T09:37:23.796Z,86
2018-03-06T09:42:52.137Z,86
2018-03-06T09:48:19.674Z,86
2018-03-06T09:53:47.207Z,86
2018-03-06T09:59:15.882Z,86
2018-03-06T10:04:43.303Z,86
2018-03-06T10:10:10.988Z,86
2018-03-06T10:15:39.476Z,86
2018-03-06T10:21:08.554Z,86
2018-03-06T10:26:35.919Z,86
2018-03-06T10:32:04.370Z,86
2018-03-06T10:37:32.517Z,85
2018-03-06T10:43:00.814Z,85
2018-03-06T10:48:29.358Z,85
2018-03-06T10:53:57.950Z,85
2018-03-06T10:59:26.734Z,85
2018-03-06T11:04:55.392Z,84
2018-03-06T11:10:24.007Z,84
2018-03-06T11:15:51.700Z,84
2018-03-06T11:21:19.388Z,84
2018-03-06T11:26:48.095Z,84
2018-03-06T11:32:16.831Z,83
2018-03-06T11:37:45.592Z,83
2018-03-06T11:43:14.315Z,83
2018-03-06T11:48:42.199Z,83
2018-03-06T11:54:09.862Z,83
2018-03-06T11:59:38.749Z,83
2018-03-06T12:05:06.706Z,84
2018-03-06T12:10:34.769Z,85
2018-03-06T12:16:02.923Z,85
2018-03-06T12:21:31.112Z,84
2018-03-06T12:26:59.615Z,84
2018-03-06T12:32:28.738Z,84
2018-03-06T12:37:57.338Z,83
2018-03-06T12:43:25.800Z,82
2018-03-06T12:48:53.988Z,82
2018-03-06T12:54:22.360Z,81
2018-03-06T12:59:51.807Z,80
2018-03-06T13:05:21.568Z,79
2018-03-06T13:10:50.729Z,78
2018-03-06T13:16:20.312Z,77
2018-03-06T13:21:48.793Z,77
2018-03-06T13:27:18.527Z,76
2018-03-06T13:32:47.777Z,75
2018-03-06T13:38:17.188Z,74
2018-03-06T13:43:45.645Z,72
2018-03-06T13:49:15.249Z,72
2018-03-06T13:54:43.637Z,71
2018-03-06T14:00:13.100Z,70
2018-03-06T14:05:42.573Z,69
2018-03-06T14:11:11.040Z,69
2018-03-06T14:16:39.447Z,68
2018-03-06T14:22:07.829Z,66
2018-03-06T14:27:36.121Z,66
2018-03-06T14:33:04.351Z,65
2018-03-06T14:38:33.595Z,65
2018-03-06T14:44:01.821Z,64
2018-03-06T14:49:29.801Z,63
2018-03-06T14:54:57.842Z,63
2018-03-06T15:00:25.861Z,62
2018-03-06T15:05:53.819Z,61
2018-03-06T15:11:22.730Z,61
2018-03-06T15:16:50.760Z,61
2018-03-06T15:22:20.013Z,61
2018-03-06T15:27:47.722Z,61
2018-03-06T15:33:16.686Z,60
2018-03-06T15:38:45.644Z,60
2018-03-06T15:44:13.388Z,60
2018-03-06T15:49:41.268Z,60
2018-03-06T15:55:09.062Z,60
2018-03-06T16:00:37.584Z,60
2018-03-06T16:06:06.270Z,60
2018-03-06T16:11:33.923Z,59
2018-03-06T16:17:02.860Z,60
2018-03-06T16:22:30.060Z,60
2018-03-06T16:27:57.613Z,60
2018-03-06T16:33:26.150Z,60
2018-03-06T16:38:53.678Z,60
2018-03-06T16:44:21.160Z,61
2018-03-06T16:49:48.666Z,61
2018-03-06T16:55:17.298Z,61
2018-03-06T17:00:44.564Z,61
2018-03-06T17:06:13.027Z,62
2018-03-06T17:11:41.482Z,62
2018-03-06T17:17:08.824Z,62
2018-03-06T17:22:37.269Z,62
2018-03-06T17:28:05.657Z,62
2018-03-06T17:33:34.033Z,62
2018-03-06T17:39:01.472Z,63
2018-03-06T17:44:29.973Z,63
2018-03-06T17:49:58.312Z,63
2018-03-06T17:55:25.668Z,63
2018-03-06T18:00:54.084Z,64
2018-03-06T18:06:22.438Z,64
2018-03-06T18:11:50.837Z,64
2018-03-06T18:17:18.244Z,64
2018-03-06T18:22:45.576Z,64
2018-03-06T18:28:13.952Z,64
2018-03-06T18:33:41.289Z,65
2018-03-06T18:39:09.655Z,65
2018-03-06T18:44:38.014Z,65
2018-03-06T18:50:06.346Z,65
2018-03-06T18:55:34.714Z,65
2018-03-06T19:01:03.073Z,65
2018-03-06T19:06:31.430Z,66
2018-03-06T19:11:58.804Z,66
2018-03-06T19:11:59.453Z,66
2018-03-06T19:17:26.155Z,66
2018-03-06T19:22:54.428Z,66
2018-03-06T19:28:22.741Z,66
2018-03-06T19:33:51.067Z,66
2018-03-06T19:39:18.395Z,66
2018-03-06T19:44:45.724Z,66
2018-03-06T19:50:14.134Z,67
2018-03-06T19:55:42.361Z,67
2018-03-06T20:01:09.668Z,67
2018-03-06T20:06:37.027Z,67
2018-03-06T20:12:05.347Z,67
2018-03-06T20:17:32.677Z,67
2018-03-06T20:22:59.975Z,67
2018-03-06T20:28:28.339Z,68
2018-03-06T20:33:56.594Z,68
2018-03-06T20:39:24.946Z,68
2018-03-06T20:44:52.230Z,68
2018-03-06T20:50:19.521Z,68
2018-03-06T20:55:47.914Z,68
2018-03-06T21:01:15.172Z,68
2018-03-06T21:06:42.411Z,69
2018-03-06T21:12:10.651Z,69
2018-03-06T21:17:39.001Z,69
2018-03-06T21:23:06.273Z,69
2018-03-06T21:28:33.500Z,69
2018-03-06T21:34:00.895Z,69
2018-03-06T21:39:28.104Z,69
2018-03-06T21:44:55.547Z,70
2018-03-06T21:50:22.703Z,70
2018-03-06T21:55:50.956Z,70
2018-03-06T22:01:19.209Z,70
2018-03-06T22:06:46.488Z,70
2018-03-06T22:12:13.806Z,70
2018-03-06T22:17:40.990Z,70
2018-03-06T22:23:08.249Z,70
2018-03-06T22:28:35.483Z,71
2018-03-06T22:34:02.826Z,71
2018-03-06T22:39:30.027Z,71
2018-03-06T22:44:58.243Z,71
2018-03-06T22:50:25.522Z,71
2018-03-06T22:55:52.763Z,71
2018-03-06T23:01:20.017Z,71
2018-03-06T23:06:48.247Z,71
2018-03-06T23:12:15.508Z,71
2018-03-06T23:17:42.710Z,71
2018-03-06T23:23:11.004Z,71
2018-03-06T23:28:39.218Z,72
2018-03-06T23:34:06.440Z,72
2018-03-06T23:39:33.719Z,72
2018-03-06T23:45:01.999Z,72
2018-03-06T23:50:29.252Z,72
2018-03-06T23:55:57.433Z,72
